Time;durP1;ratioP1;P1;durP2;ratioP2;P2;SDS_P1;SDS_P2;PMS_P1;PMS_P2;Temp;Humidity;BMP_temperature;BMP_pressure;BME280_temperature;BME280_humidity;BME280_pressure;Samples;Min_cycle;Max_cycle;Signal;HPM_P1;HPM_P2
2022/05/19 00:01:01;;;;;;;9.20;7.10;;;15.70;99.90;;;;;;5050153;28;20411;-84
2022/05/19 00:03:24;;;;;;;9.18;6.97;;;15.60;99.90;;;;;;5051817;28;20395;-85
2022/05/19 00:05:49;;;;;;;7.83;7.13;;;15.50;99.90;;;;;;5049844;28;20890;-84
2022/05/19 00:08:15;;;;;;;10.00;7.45;;;15.40;99.90;;;;;;5049889;28;20464;-85
2022/05/19 00:10:42;;;;;;;9.70;7.47;;;15.40;99.90;;;;;;5050507;28;20821;-84
2022/05/19 00:13:07;;;;;;;10.27;7.93;;;15.40;99.90;;;;;;5051199;28;20364;-84
2022/05/19 00:15:33;;;;;;;9.63;7.78;;;15.40;99.90;;;;;;5049975;28;20383;-84
2022/05/19 00:17:59;;;;;;;8.57;7.70;;;15.40;99.90;;;;;;5049663;28;20380;-84
2022/05/19 00:20:24;;;;;;;7.85;7.05;;;15.40;99.90;;;;;;5049281;28;20821;-84
2022/05/19 00:22:50;;;;;;;8.80;7.93;;;15.40;99.90;;;;;;5051732;28;20380;-84
2022/05/19 00:25:15;;;;;;;8.30;7.07;;;15.40;99.90;;;;;;5050866;28;20368;-85
2022/05/19 00:27:41;;;;;;;8.10;7.30;;;15.30;99.90;;;;;;5049635;28;20402;-85
2022/05/19 00:30:07;;;;;;;8.38;7.47;;;15.20;99.90;;;;;;5050670;28;20410;-85
2022/05/19 00:32:33;;;;;;;8.45;7.63;;;15.20;99.90;;;;;;5051042;28;20383;-86
2022/05/19 00:34:58;;;;;;;9.13;8.33;;;15.10;99.90;;;;;;5051495;28;20368;-84
2022/05/19 00:37:24;;;;;;;8.70;7.75;;;15.00;99.90;;;;;;5049767;28;20395;-84
2022/05/19 00:39:50;;;;;;;8.23;7.50;;;15.20;99.90;;;;;;5050831;28;20478;-87
2022/05/19 00:45:01;;;;;;;8.00;7.30;;;14.90;99.90;;;;;;5052121;28;20463;-86
2022/05/19 00:47:35;;;;;;;8.00;7.20;;;14.90;99.90;;;;;;5049690;28;20457;-85
2022/05/19 00:50:02;;;;;;;9.18;7.53;;;15.40;99.90;;;;;;5049965;28;20408;-86
2022/05/19 00:52:39;;;;;;;8.60;7.80;;;14.70;99.90;;;;;;5049446;28;20392;-85
2022/05/19 00:55:12;;;;;;;8.73;7.93;;;14.60;99.90;;;;;;5032753;28;20477;-85
2022/05/19 00:57:43;;;;;;;10.23;7.93;;;14.50;99.90;;;;;;5048990;28;20376;-84
2022/05/19 01:00:27;;;;;;;9.20;8.23;;;14.50;99.90;;;;;;5049169;28;20733;-84
2022/05/19 01:02:59;;;;;;;9.10;8.07;;;14.50;99.90;;;;;;5050921;28;20376;-87
2022/05/19 01:05:31;;;;;;;9.35;7.70;;;14.40;99.90;;;;;;5049789;28;20411;-87
2022/05/19 01:07:58;;;;;;;8.70;7.82;;;14.30;99.90;;;;;;5051150;28;20388;-85
2022/05/19 01:10:24;;;;;;;8.63;7.80;;;14.20;99.90;;;;;;5049491;28;20913;-86
2022/05/19 01:12:51;;;;;;;8.30;7.50;;;14.20;99.90;;;;;;5049840;28;20386;-85
2022/05/19 01:15:18;;;;;;;9.05;8.23;;;14.20;99.90;;;;;;5049066;28;20380;-85
2022/05/19 01:17:44;;;;;;;8.80;7.63;;;14.10;99.90;;;;;;5050721;28;20375;-86
2022/05/19 01:20:26;;;;;;;9.32;8.43;;;14.00;99.90;;;;;;5049706;28;20951;-85
2022/05/19 01:22:54;;;;;;;7.78;7.05;;;14.00;99.90;;;;;;5050870;28;20866;-83
2022/05/19 01:25:44;;;;;;;9.15;8.35;;;13.90;99.90;;;;;;5050673;28;20376;-87
2022/05/19 01:28:10;;;;;;;9.57;8.68;;;13.90;99.90;;;;;;5048757;28;20384;-86
2022/05/19 01:30:36;;;;;;;8.87;8.10;;;13.80;99.90;;;;;;5051301;28;20400;-85
2022/05/19 01:33:02;;;;;;;8.70;7.90;;;13.70;99.90;;;;;;5049689;28;20515;-86
2022/05/19 01:35:33;;;;;;;9.33;8.30;;;13.70;99.90;;;;;;5050446;28;20471;-85
2022/05/19 01:37:59;;;;;;;11.05;9.30;;;13.70;99.90;;;;;;5051388;28;20387;-86
2022/05/19 01:40:43;;;;;;;10.30;9.25;;;13.70;99.90;;;;;;5050106;28;21052;-85
2022/05/19 01:43:43;;;;;;;9.55;8.65;;;13.60;99.90;;;;;;5049404;28;20750;-86
2022/05/19 01:46:15;;;;;;;10.50;8.85;;;13.60;99.90;;;;;;5051109;28;20378;-84
2022/05/19 01:48:51;;;;;;;9.40;8.60;;;13.50;99.90;;;;;;5049561;28;20431;-86
2022/05/19 01:51:38;;;;;;;10.65;9.50;;;13.50;99.90;;;;;;5048149;28;20768;-85
2022/05/19 01:54:13;;;;;;;9.80;8.80;;;13.40;99.90;;;;;;5047971;28;20407;-85
2022/05/19 01:56:53;;;;;;;10.77;9.60;;;13.40;99.90;;;;;;5047903;28;20394;-85
2022/05/19 01:59:22;;;;;;;10.18;9.02;;;13.40;99.90;;;;;;5048252;28;21255;-86
2022/05/19 02:02:12;;;;;;;10.50;9.52;;;13.30;99.90;;;;;;5049949;28;20463;-86
2022/05/19 02:05:02;;;;;;;10.77;9.75;;;13.20;99.90;;;;;;5049295;28;20407;-86
2022/05/19 02:07:31;;;;;;;10.35;9.40;;;13.10;99.90;;;;;;5049138;28;20395;-87
2022/05/19 02:10:07;;;;;;;10.88;9.98;;;13.10;99.90;;;;;;5047054;28;20419;-86
2022/05/19 02:12:34;;;;;;;11.07;9.82;;;13.10;99.90;;;;;;5048048;28;20395;-85
2022/05/19 02:15:04;;;;;;;10.38;9.35;;;13.10;99.90;;;;;;5048527;28;20375;-84
2022/05/19 02:17:32;;;;;;;10.93;9.17;;;13.00;99.90;;;;;;5049366;28;20435;-83
2022/05/19 02:20:08;;;;;;;10.23;9.27;;;13.00;99.90;;;;;;5048621;28;20966;-85
2022/05/19 02:22:39;;;;;;;10.75;9.75;;;13.00;99.90;;;;;;5047699;28;20525;-84
2022/05/19 02:25:27;;;;;;;12.15;10.95;;;13.00;99.90;;;;;;5047801;28;20395;-84
2022/05/19 02:28:15;;;;;;;11.43;10.32;;;13.00;99.90;;;;;;5047374;28;20387;-84
2022/05/19 02:30:41;;;;;;;11.53;10.53;;;12.90;99.90;;;;;;5047401;28;20470;-87
2022/05/19 02:33:08;;;;;;;11.60;10.55;;;12.90;99.90;;;;;;5048971;28;20380;-84
2022/05/19 02:35:34;;;;;;;11.52;10.43;;;12.90;99.90;;;;;;5047408;28;20379;-84
2022/05/19 02:38:00;;;;;;;11.75;10.55;;;13.00;99.90;;;;;;5047275;28;20375;-86
2022/05/19 02:40:31;;;;;;;11.90;10.88;;;13.00;99.90;;;;;;5048450;28;20766;-84
2022/05/19 02:42:57;;;;;;;11.83;10.77;;;13.00;99.90;;;;;;5048827;28;20597;-86
2022/05/19 02:45:24;;;;;;;11.73;10.57;;;12.90;99.90;;;;;;5048776;28;20921;-86
2022/05/19 02:47:50;;;;;;;11.23;10.23;;;12.80;99.90;;;;;;5046852;28;20746;-84
2022/05/19 02:50:17;;;;;;;11.02;10.00;;;12.80;99.90;;;;;;5047009;28;20487;-86
2022/05/19 02:52:43;;;;;;;11.43;10.32;;;12.80;99.90;;;;;;5050947;28;20465;-85
2022/05/19 02:55:10;;;;;;;11.70;10.60;;;12.80;99.90;;;;;;5049960;28;20384;-86
2022/05/19 02:57:36;;;;;;;11.05;10.10;;;12.80;99.90;;;;;;5052057;28;20382;-85
2022/05/19 03:00:06;;;;;;;11.32;10.23;;;12.80;99.90;;;;;;5051475;28;20380;-84
2022/05/19 03:02:33;;;;;;;11.35;10.13;;;12.80;99.90;;;;;;5050958;28;20375;-85
2022/05/19 03:04:59;;;;;;;10.93;9.93;;;12.80;99.90;;;;;;5050894;28;20395;-84
2022/05/19 03:07:24;;;;;;;11.25;10.18;;;12.70;99.90;;;;;;5052656;28;20387;-86
2022/05/19 03:09:50;;;;;;;10.53;9.47;;;12.70;99.90;;;;;;5050222;28;20411;-85
2022/05/19 03:12:16;;;;;;;11.80;10.63;;;12.70;99.90;;;;;;5053096;28;20876;-86
2022/05/19 03:14:42;;;;;;;11.65;10.45;;;12.80;99.90;;;;;;5052353;28;20376;-85
2022/05/19 03:17:09;;;;;;;12.13;11.02;;;12.70;99.90;;;;;;5051172;28;20457;-86
2022/05/19 03:19:36;;;;;;;11.88;10.85;;;12.70;99.90;;;;;;5051723;28;20482;-86
2022/05/19 03:22:02;;;;;;;12.52;11.30;;;12.70;99.90;;;;;;5051002;28;20437;-86
2022/05/19 03:24:29;;;;;;;11.63;10.43;;;12.70;99.90;;;;;;5051740;28;20715;-86
2022/05/19 03:26:55;;;;;;;11.70;10.60;;;12.70;99.90;;;;;;5052005;28;20411;-86
2022/05/19 03:29:21;;;;;;;12.53;11.23;;;12.70;99.90;;;;;;5051293;28;20372;-85
2022/05/19 03:31:47;;;;;;;12.45;11.23;;;12.70;99.90;;;;;;5050977;28;20384;-85
2022/05/19 03:34:16;;;;;;;11.10;10.10;;;12.70;99.90;;;;;;5051828;28;20384;-84
2022/05/19 03:36:43;;;;;;;13.20;10.77;;;12.70;99.90;;;;;;5050992;28;20387;-85
2022/05/19 03:39:09;;;;;;;12.25;11.15;;;12.70;99.90;;;;;;5050333;28;20378;-85
2022/05/19 03:41:35;;;;;;;11.60;10.50;;;12.80;99.90;;;;;;5050311;28;20456;-85
2022/05/19 03:44:01;;;;;;;11.85;10.55;;;12.80;99.90;;;;;;5051846;28;20454;-85
2022/05/19 03:46:26;;;;;;;12.35;11.25;;;12.80;99.90;;;;;;5051636;28;20391;-85
2022/05/19 03:48:52;;;;;;;12.07;10.87;;;12.90;99.90;;;;;;5050553;28;20467;-84
2022/05/19 03:51:24;;;;;;;12.25;11.15;;;12.90;99.90;;;;;;5050234;28;20403;-85
2022/05/19 03:53:50;;;;;;;11.40;9.75;;;13.00;99.90;;;;;;5034011;28;20384;-86
2022/05/19 03:56:21;;;;;;;14.07;11.18;;;13.00;99.90;;;;;;5049041;28;20403;-86
2022/05/19 03:58:48;;;;;;;12.57;11.27;;;13.10;99.90;;;;;;5051063;28;20374;-86
2022/05/19 04:01:14;;;;;;;12.40;11.10;;;13.20;99.90;;;;;;5051431;28;20384;-85
2022/05/19 04:03:39;;;;;;;12.27;10.47;;;13.30;99.90;;;;;;5049312;28;20391;-86
2022/05/19 04:06:05;;;;;;;11.37;10.23;;;13.40;99.90;;;;;;5051083;28;20396;-86
2022/05/19 04:08:31;;;;;;;11.10;10.00;;;13.50;99.90;;;;;;5051375;28;20406;-84
2022/05/19 04:10:56;;;;;;;11.47;10.37;;;13.60;99.90;;;;;;5051481;28;20902;-83
2022/05/19 04:13:22;;;;;;;13.75;10.55;;;13.60;99.90;;;;;;5051800;28;21473;-86
2022/05/19 04:15:48;;;;;;;10.40;9.40;;;13.70;99.90;;;;;;5052230;28;20403;-84
2022/05/19 04:18:14;;;;;;;10.33;9.33;;;13.90;99.90;;;;;;5050805;28;20379;-86
2022/05/19 04:20:40;;;;;;;11.45;10.05;;;14.00;99.90;;;;;;5051183;28;20384;-85
2022/05/19 04:23:05;;;;;;;14.65;9.32;;;14.10;99.90;;;;;;5051055;28;20391;-85
2022/05/19 04:25:31;;;;;;;11.18;10.00;;;14.20;99.90;;;;;;5052862;28;20368;-85
2022/05/19 04:27:58;;;;;;;10.83;9.50;;;14.30;99.90;;;;;;5053557;28;20376;-83
2022/05/19 04:30:24;;;;;;;10.35;9.35;;;14.50;99.90;;;;;;5053929;28;20766;-83
2022/05/19 04:32:49;;;;;;;9.60;8.60;;;14.70;99.90;;;;;;5052855;28;20368;-84
2022/05/19 04:35:15;;;;;;;10.02;9.05;;;14.80;99.90;;;;;;5053475;28;20387;-84
2022/05/19 04:37:42;;;;;;;10.43;8.35;;;15.10;99.90;;;;;;5054337;28;20383;-84
2022/05/19 04:40:14;;;;;;;11.43;8.32;;;15.50;99.90;;;;;;5054217;28;20387;-85
2022/05/19 04:42:41;;;;;;;8.07;7.27;;;15.90;99.90;;;;;;5054727;28;20455;-86
2022/05/19 04:45:08;;;;;;;9.23;7.72;;;16.30;99.90;;;;;;5053668;28;20386;-85
2022/05/19 04:47:41;;;;;;;8.60;7.72;;;16.50;99.90;;;;;;5054905;28;20750;-85
2022/05/19 04:50:17;;;;;;;19.70;8.65;;;16.80;99.90;;;;;;5054683;28;20451;-87
2022/05/19 04:52:46;;;;;;;12.65;7.57;;;17.20;99.90;;;;;;5053921;28;20368;-83
2022/05/19 04:55:11;;;;;;;11.05;7.65;;;17.40;99.90;;;;;;5052714;28;20379;-86
2022/05/19 04:57:38;;;;;;;8.50;7.57;;;17.50;99.90;;;;;;5054798;28;20952;-85
2022/05/19 05:00:06;;;;;;;8.25;7.20;;;17.60;99.90;;;;;;5053823;28;20380;-85
2022/05/19 05:02:32;;;;;;;8.35;7.45;;;17.80;99.90;;;;;;5053964;28;20383;-83
2022/05/19 05:04:59;;;;;;;9.02;7.30;;;17.90;99.90;;;;;;5053451;28;20439;-84
2022/05/19 05:07:24;;;;;;;8.85;7.00;;;18.00;99.90;;;;;;5054412;28;20447;-85
2022/05/19 05:09:50;;;;;;;7.78;6.97;;;18.20;99.90;;;;;;5055885;28;20897;-84
2022/05/19 05:12:16;;;;;;;12.57;7.57;;;18.30;99.90;;;;;;5056316;28;20456;-86
2022/05/19 05:14:41;;;;;;;9.48;6.82;;;18.50;99.90;;;;;;5055610;28;20889;-86
2022/05/19 05:17:09;;;;;;;7.33;6.53;;;18.60;99.90;;;;;;5057255;28;20375;-86
2022/05/19 05:19:38;;;;;;;9.68;6.95;;;18.70;99.90;;;;;;5056796;28;20384;-87
2022/05/19 05:22:04;;;;;;;8.63;6.80;;;18.70;99.90;;;;;;5057227;28;20380;-86
2022/05/19 05:24:29;;;;;;;9.48;6.88;;;18.80;99.90;;;;;;5056488;28;20865;-84
2022/05/19 05:26:55;;;;;;;16.83;7.22;;;18.80;99.90;;;;;;5055421;28;20457;-86
2022/05/19 05:29:21;;;;;;;10.77;6.70;;;18.90;99.90;;;;;;5055698;28;21235;-86
2022/05/19 05:31:47;;;;;;;8.32;6.28;;;18.90;99.90;;;;;;5055214;28;20419;-88
2022/05/19 05:34:12;;;;;;;27.52;9.57;;;18.90;99.90;;;;;;5056633;28;20380;-86
2022/05/19 05:36:38;;;;;;;14.30;6.50;;;18.90;99.90;;;;;;5057951;28;20448;-88
2022/05/19 05:39:04;;;;;;;7.38;6.53;;;19.00;99.90;;;;;;5054515;28;21292;-86
2022/05/19 05:41:30;;;;;;;9.03;6.37;;;19.10;99.90;;;;;;5055617;28;20471;-86
2022/05/19 05:43:55;;;;;;;12.40;6.65;;;19.10;99.90;;;;;;5049551;28;20392;-85
2022/05/19 05:46:21;;;;;;;17.47;7.10;;;19.10;99.90;;;;;;5052472;28;20368;-86
2022/05/19 05:48:48;;;;;;;20.92;7.45;;;19.20;99.90;;;;;;5049161;28;20383;-85
2022/05/19 05:51:16;;;;;;;8.98;6.32;;;19.30;99.90;;;;;;5053171;28;20754;-87
2022/05/19 05:53:43;;;;;;;9.15;5.90;;;19.30;99.90;;;;;;5052091;28;20388;-89
2022/05/19 05:56:20;;;;;;;10.85;6.40;;;19.50;99.90;;;;;;5051903;28;20380;-86
2022/05/19 05:59:06;;;;;;;8.18;6.20;;;19.50;99.90;;;;;;5053083;28;20380;-86
2022/05/19 06:01:31;;;;;;;8.75;6.43;;;19.70;99.90;;;;;;5054247;28;20384;-84
2022/05/19 06:03:57;;;;;;;7.13;6.30;;;19.80;99.90;;;;;;5054828;28;20801;-85
2022/05/19 06:06:25;;;;;;;6.72;6.03;;;19.90;99.90;;;;;;5049822;28;20391;-83
2022/05/19 06:08:51;;;;;;;7.45;6.20;;;20.10;99.90;;;;;;5051933;28;20376;-88
2022/05/19 06:11:21;;;;;;;9.05;6.43;;;20.10;99.90;;;;;;5052663;28;20399;-86
2022/05/19 06:13:49;;;;;;;14.65;7.05;;;20.30;99.90;;;;;;5049705;28;20372;-82
2022/05/19 06:16:14;;;;;;;7.10;6.07;;;20.40;99.90;;;;;;5051505;28;20371;-84
2022/05/19 06:18:40;;;;;;;7.38;6.30;;;20.40;99.90;;;;;;5049783;28;20394;-85
2022/05/19 06:21:06;;;;;;;8.20;6.20;;;20.60;99.90;;;;;;5050818;28;20723;-84
2022/05/19 06:23:32;;;;;;;6.95;6.10;;;20.60;99.90;;;;;;5052471;28;20422;-82
2022/05/19 06:25:59;;;;;;;23.75;7.18;;;20.60;99.90;;;;;;5052139;28;20474;-87
2022/05/19 06:28:27;;;;;;;9.93;6.00;;;;;;;;;;5048947;28;20396;-87
2022/05/19 06:30:56;;;;;;;11.18;6.70;;;20.90;99.90;;;;;;5053306;28;20407;-87
2022/05/19 06:33:22;;;;;;;7.60;5.70;;;21.10;99.90;;;;;;5053016;28;20376;-88
2022/05/19 06:35:48;;;;;;;11.17;6.20;;;21.30;99.90;;;;;;5052390;28;20391;-88
2022/05/19 06:38:14;;;;;;;9.90;5.32;;;21.60;99.90;;;;;;5051809;28;20376;-86
2022/05/19 06:40:41;;;;;;;6.10;5.50;;;21.80;99.90;;;;;;5051690;28;20383;-86
2022/05/19 06:43:13;;;;;;;8.07;5.68;;;21.90;99.90;;;;;;5049228;28;20395;-86
2022/05/19 06:45:40;;;;;;;5.88;5.30;;;22.20;99.90;;;;;;5052520;28;20810;-88
2022/05/19 06:48:06;;;;;;;15.23;6.18;;;22.40;99.90;;;;;;5050791;28;20379;-85
2022/05/19 06:50:33;;;;;;;14.40;5.45;;;22.70;99.90;;;;;;5050744;28;20395;-85
2022/05/19 06:53:03;;;;;;;6.82;4.80;;;23.00;99.90;;;;;;5050742;28;20384;-82
2022/05/19 06:55:31;;;;;;;6.88;4.78;;;23.00;99.90;;;;;;5051290;28;20460;-86
2022/05/19 06:57:58;;;;;;;10.68;5.38;;;23.10;99.90;;;;;;5049379;28;20445;-86
2022/05/19 07:00:28;;;;;;;5.57;4.57;;;23.30;99.90;;;;;;5051076;28;20375;-89
2022/05/19 07:02:59;;;;;;;10.48;5.28;;;23.60;99.90;;;;;;5038910;28;20383;-86
2022/05/19 07:05:40;;;;;;;9.68;4.57;;;23.60;99.90;;;;;;5048564;28;20504;-90
2022/05/19 07:08:09;;;;;;;5.10;4.40;;;23.80;99.90;;;;;;5052547;28;20379;-85
2022/05/19 07:10:35;;;;;;;5.70;4.70;;;24.00;99.90;;;;;;5052734;28;20455;-88
2022/05/19 07:13:00;;;;;;;9.30;4.75;;;24.30;99.90;;;;;;5051459;28;20496;-88
2022/05/19 07:15:29;;;;;;;8.93;4.60;;;24.60;99.80;;;;;;5050809;28;20437;-84
2022/05/19 07:17:55;;;;;;;7.30;4.60;;;24.60;99.90;;;;;;5051537;28;20391;-84
2022/05/19 07:23:06;;;;;;;9.38;4.47;;;24.60;99.30;;;;;;5054581;28;20386;-85
2022/05/19 07:25:35;;;;;;;10.07;5.10;;;24.70;99.30;;;;;;5048619;28;20376;-85
2022/05/19 07:28:01;;;;;;;5.85;4.50;;;24.70;99.10;;;;;;5042436;28;20386;-88
2022/05/19 07:30:49;;;;;;;7.28;4.40;;;24.90;99.20;;;;;;5041835;28;20406;-85
2022/05/19 07:33:15;;;;;;;5.15;4.20;;;24.90;99.10;;;;;;5044854;28;20451;-84
2022/05/19 07:35:44;;;;;;;5.30;4.68;;;24.90;97.90;;;;;;5049389;28;20391;-86
2022/05/19 07:38:30;;;;;;;7.35;4.50;;;25.10;99.90;;;;;;5039810;28;20376;-87
2022/05/19 07:40:56;;;;;;;7.78;4.55;;;25.20;99.90;;;;;;5060582;28;20704;-88
2022/05/19 07:43:36;;;;;;;7.43;4.50;;;25.20;99.60;;;;;;5046757;28;20397;-89
2022/05/19 07:46:02;;;;;;;16.38;5.25;;;25.20;98.20;;;;;;5048447;28;20380;-84
2022/05/19 07:48:30;;;;;;;5.53;4.38;;;25.50;99.00;;;;;;5053063;28;20425;-87
2022/05/19 07:51:08;;;;;;;7.75;4.03;;;25.40;98.10;;;;;;5051305;28;20524;-85
2022/05/19 07:53:34;;;;;;;7.07;4.00;;;25.50;97.40;;;;;;5048110;28;20463;-85
2022/05/19 07:56:00;;;;;;;9.90;4.53;;;25.60;98.00;;;;;;5046069;28;20474;-84
2022/05/19 07:58:29;;;;;;;10.57;4.60;;;25.70;98.40;;;;;;5044609;28;20485;-86
2022/05/19 08:01:04;;;;;;;6.53;4.30;;;25.80;98.00;;;;;;5046302;28;20379;-85
2022/05/19 08:03:30;;;;;;;8.55;4.28;;;26.00;98.10;;;;;;5043062;28;20489;-84
2022/05/19 08:05:55;;;;;;;13.25;4.88;;;26.20;97.60;;;;;;5043811;28;20487;-88
2022/05/19 08:08:21;;;;;;;11.70;4.37;;;26.30;96.90;;;;;;5045285;28;20387;-83
2022/05/19 08:10:47;;;;;;;6.65;4.55;;;26.40;97.00;;;;;;5045008;28;20808;-85
2022/05/19 08:15:57;;;;;;;7.28;3.92;;;26.20;96.30;;;;;;5043291;28;20363;-87
2022/05/19 08:18:25;;;;;;;6.43;4.05;;;26.30;99.90;;;;;;5046558;28;20803;-90
2022/05/19 08:20:54;;;;;;;6.85;4.20;;;26.30;99.90;;;;;;5046775;28;20406;-87
2022/05/19 08:23:28;;;;;;;5.05;4.28;;;26.50;96.70;;;;;;5046669;28;20447;-86
2022/05/19 08:25:55;;;;;;;10.00;4.50;;;26.50;96.90;;;;;;5044895;28;20381;-88
2022/05/19 08:28:21;;;;;;;5.93;4.10;;;26.50;96.90;;;;;;5051219;28;20746;-86
2022/05/19 08:30:51;;;;;;;5.25;4.45;;;26.50;95.60;;;;;;5044762;28;20381;-84
2022/05/19 08:33:21;;;;;;;4.90;4.25;;;26.60;97.20;;;;;;5042120;28;20471;-87
2022/05/19 08:35:51;;;;;;;7.05;4.57;;;;;;;;;;5041731;28;20370;-88
2022/05/19 08:38:17;;;;;;;4.82;4.10;;;26.80;99.90;;;;;;5041863;28;20847;-85
2022/05/19 08:40:50;;;;;;;10.38;3.92;;;26.70;95.40;;;;;;5043354;28;20418;-88
2022/05/19 08:43:19;;;;;;;6.95;4.40;;;26.80;96.50;;;;;;5061549;28;20410;-85
2022/05/19 08:45:49;;;;;;;7.93;4.18;;;26.90;96.40;;;;;;5041603;28;20379;-84
2022/05/19 08:48:21;;;;;;;6.07;4.25;;;27.10;96.40;;;;;;5044103;28;20381;-86
2022/05/19 08:50:49;;;;;;;6.78;4.10;;;27.10;95.90;;;;;;5042420;28;20393;-85
2022/05/19 08:53:15;;;;;;;7.68;4.00;;;27.20;95.90;;;;;;5043830;28;20376;-84
2022/05/19 08:55:45;;;;;;;7.40;3.90;;;27.30;94.70;;;;;;5041565;28;20886;-89
2022/05/19 08:58:43;;;;;;;5.57;4.00;;;27.30;95.70;;;;;;5044102;28;20382;-88
2022/05/19 09:01:18;;;;;;;7.50;4.13;;;27.40;95.80;;;;;;5042612;28;20370;-85
2022/05/19 09:04:21;;;;;;;4.72;3.83;;;27.50;95.20;;;;;;5042349;28;20785;-85
2022/05/19 09:10:11;;;;;;;10.50;4.38;;;27.60;94.40;;;;;;5045482;28;20423;-89
2022/05/19 09:12:39;;;;;;;8.30;4.18;;;27.90;95.00;;;;;;5045579;28;20373;-83
2022/05/19 09:15:09;;;;;;;9.18;4.15;;;28.10;95.80;;;;;;5042594;28;20418;-87
2022/05/19 09:17:42;;;;;;;5.75;4.30;;;28.30;94.80;;;;;;5043410;28;20368;-83
2022/05/19 09:20:17;;;;;;;5.00;3.87;;;;;;;;;;5038647;28;20472;-84
2022/05/19 09:22:43;;;;;;;10.07;4.45;;;28.00;93.70;;;;;;5041562;28;20434;-86
2022/05/19 09:25:20;;;;;;;11.37;4.10;;;28.00;94.50;;;;;;5041020;28;21059;-88
2022/05/19 09:27:49;;;;;;;6.35;3.80;;;28.00;93.90;;;;;;5042841;28;21020;-85
2022/05/19 09:30:38;;;;;;;8.02;3.75;;;28.20;94.30;;;;;;5041163;28;20444;-87
2022/05/19 09:33:33;;;;;;;5.32;3.67;;;28.30;93.40;;;;;;5043221;28;20435;-85
2022/05/19 09:36:00;;;;;;;7.95;4.18;;;28.30;94.10;;;;;;5043368;28;20369;-86
2022/05/19 09:38:38;;;;;;;6.90;3.70;;;28.40;94.30;;;;;;5041277;28;20374;-86
2022/05/19 09:41:40;;;;;;;16.23;4.30;;;28.40;94.20;;;;;;5045480;28;20377;-85
2022/05/19 09:44:12;;;;;;;15.18;4.85;;;28.50;93.30;;;;;;5043233;28;20747;-85
2022/05/19 09:46:42;;;;;;;8.50;4.00;;;28.40;93.90;;;;;;5042656;28;20370;-87
2022/05/19 09:49:32;;;;;;;5.93;4.03;;;28.30;94.20;;;;;;5040596;28;20379;-84
2022/05/19 09:52:05;;;;;;;8.30;3.63;;;28.10;94.70;;;;;;5039465;28;20412;-86
2022/05/19 09:54:33;;;;;;;8.15;3.90;;;28.30;94.30;;;;;;5040977;28;20374;-85
2022/05/19 09:57:17;;;;;;;19.88;5.13;;;28.40;92.10;;;;;;5027333;28;20871;-86
2022/05/19 09:59:49;;;;;;;7.20;4.07;;;28.30;93.00;;;;;;5042396;28;20382;-88
2022/05/19 10:02:21;;;;;;;12.77;4.47;;;28.50;93.90;;;;;;5038086;28;20400;-86
2022/05/19 10:04:55;;;;;;;6.67;4.03;;;28.60;93.50;;;;;;5041336;28;20404;-87
2022/05/19 10:07:26;;;;;;;5.85;3.75;;;28.70;93.10;;;;;;5041795;28;20408;-87
2022/05/19 10:09:54;;;;;;;6.13;4.00;;;28.90;92.60;;;;;;5041615;28;20370;-89
2022/05/19 10:12:28;;;;;;;6.28;4.05;;;28.90;92.40;;;;;;5041923;28;20758;-89
2022/05/19 10:15:03;;;;;;;4.78;3.65;;;28.90;92.10;;;;;;5040249;28;20383;-84
